sensor_id;sensor_type;location;lat;lon;timestamp;pressure;altitude;pressure_sealevel;temperature;humidity
81802;BME280;71199;52.490;5.448;2023-12-14T00:00:43;101137.94;;;4.53;100.00
81802;BME280;71199;52.490;5.448;2023-12-14T00:03:08;101151.03;;;4.59;100.00
81802;BME280;71199;52.490;5.448;2023-12-14T00:05:33;101150.91;;;4.60;100.00
81802;BME280;71199;52.490;5.448;2023-12-14T00:08:00;101154.63;;;4.59;100.00
81802;BME280;71199;52.490;5.448;2023-12-14T00:10:25;101153.91;;;4.57;100.00
81802;BME280;71199;52.490;5.448;2023-12-14T00:12:51;101142.75;;;4.60;100.00
81802;BME280;71199;52.490;5.448;2023-12-14T00:15:17;101156.75;;;4.56;100.00
81802;BME280;71199;52.490;5.448;2023-12-14T00:17:43;101154.03;;;4.56;100.00
81802;BME280;71199;52.490;5.448;2023-12-14T00:20:08;101158.09;;;4.61;100.00
81802;BME280;71199;52.490;5.448;2023-12-14T00:22:34;101164.63;;;4.59;100.00
81802;BME280;71199;52.490;5.448;2023-12-14T00:24:59;101173.81;;;4.58;100.00
81802;BME280;71199;52.490;5.448;2023-12-14T00:27:25;101165.88;;;4.66;100.00
81802;BME280;71199;52.490;5.448;2023-12-14T00:29:50;101170.06;;;4.59;100.00
81802;BME280;71199;52.490;5.448;2023-12-14T00:32:15;101172.69;;;4.60;100.00
81802;BME280;71199;52.490;5.448;2023-12-14T00:34:41;101171.19;;;4.68;100.00
81802;BME280;71199;52.490;5.448;2023-12-14T00:37:06;101175.91;;;4.66;100.00
81802;BME280;71199;52.490;5.448;2023-12-14T00:39:32;101184.94;;;4.66;100.00
81802;BME280;71199;52.490;5.448;2023-12-14T00:41:57;101184.06;;;4.66;100.00
81802;BME280;71199;52.490;5.448;2023-12-14T00:44:22;101197.06;;;4.62;100.00
81802;BME280;71199;52.490;5.448;2023-12-14T00:46:48;101200.91;;;4.59;100.00
81802;BME280;71199;52.490;5.448;2023-12-14T00:49:13;101207.09;;;4.61;100.00
81802;BME280;71199;52.490;5.448;2023-12-14T00:51:39;101197.31;;;4.59;100.00
81802;BME280;71199;52.490;5.448;2023-12-14T00:54:05;101208.06;;;4.60;100.00
81802;BME280;71199;52.490;5.448;2023-12-14T00:56:30;101219.06;;;4.59;100.00
81802;BME280;71199;52.490;5.448;2023-12-14T00:58:56;101230.84;;;4.59;100.00
81802;BME280;71199;52.490;5.448;2023-12-14T01:01:21;101235.16;;;4.62;100.00
81802;BME280;71199;52.490;5.448;2023-12-14T01:03:47;101248.44;;;4.55;100.00
81802;BME280;71199;52.490;5.448;2023-12-14T01:06:12;101243.44;;;4.60;100.00
81802;BME280;71199;52.490;5.448;2023-12-14T01:08:37;101254.97;;;4.64;100.00
81802;BME280;71199;52.490;5.448;2023-12-14T01:11:03;101258.19;;;4.58;100.00
81802;BME280;71199;52.490;5.448;2023-12-14T01:13:28;101254.22;;;4.62;99.79
81802;BME280;71199;52.490;5.448;2023-12-14T01:15:54;101263.50;;;4.59;100.00
81802;BME280;71199;52.490;5.448;2023-12-14T01:18:19;101269.06;;;4.58;100.00
81802;BME280;71199;52.490;5.448;2023-12-14T01:20:45;101269.81;;;4.60;100.00
81802;BME280;71199;52.490;5.448;2023-12-14T01:23:10;101272.91;;;4.55;100.00
81802;BME280;71199;52.490;5.448;2023-12-14T01:25:35;101270.53;;;4.51;100.00
81802;BME280;71199;52.490;5.448;2023-12-14T01:28:01;101274.63;;;4.56;100.00
81802;BME280;71199;52.490;5.448;2023-12-14T01:30:27;101271.28;;;4.53;100.00
81802;BME280;71199;52.490;5.448;2023-12-14T01:32:52;101274.41;;;4.59;100.00
81802;BME280;71199;52.490;5.448;2023-12-14T01:35:17;101280.69;;;4.60;100.00
81802;BME280;71199;52.490;5.448;2023-12-14T01:37:43;101284.91;;;4.64;100.00
81802;BME280;71199;52.490;5.448;2023-12-14T01:40:08;101287.63;;;4.53;100.00
81802;BME280;71199;52.490;5.448;2023-12-14T01:42:34;101298.16;;;4.57;100.00
81802;BME280;71199;52.490;5.448;2023-12-14T01:44:59;101304.69;;;4.55;100.00
81802;BME280;71199;52.490;5.448;2023-12-14T01:47:25;101304.22;;;4.50;100.00
81802;BME280;71199;52.490;5.448;2023-12-14T01:49:50;101316.69;;;4.52;100.00
81802;BME280;71199;52.490;5.448;2023-12-14T01:52:16;101316.81;;;4.39;100.00
81802;BME280;71199;52.490;5.448;2023-12-14T01:54:41;101329.41;;;4.40;100.00
81802;BME280;71199;52.490;5.448;2023-12-14T01:57:06;101340.31;;;4.40;100.00
81802;BME280;71199;52.490;5.448;2023-12-14T01:59:32;101324.38;;;4.47;100.00
81802;BME280;71199;52.490;5.448;2023-12-14T02:01:58;101344.13;;;4.38;100.00
81802;BME280;71199;52.490;5.448;2023-12-14T02:04:24;101352.31;;;4.38;100.00
81802;BME280;71199;52.490;5.448;2023-12-14T02:06:50;101346.50;;;4.42;100.00
81802;BME280;71199;52.490;5.448;2023-12-14T02:09:16;101358.59;;;4.38;100.00
81802;BME280;71199;52.490;5.448;2023-12-14T02:11:41;101360.56;;;4.36;100.00
81802;BME280;71199;52.490;5.448;2023-12-14T02:14:08;101373.44;;;4.34;99.87
81802;BME280;71199;52.490;5.448;2023-12-14T02:16:34;101377.78;;;4.37;99.71
81802;BME280;71199;52.490;5.448;2023-12-14T02:19:00;101369.00;;;4.33;99.79
81802;BME280;71199;52.490;5.448;2023-12-14T02:21:25;101371.94;;;4.30;99.29
81802;BME280;71199;52.490;5.448;2023-12-14T02:23:50;101386.03;;;4.24;99.55
81802;BME280;71199;52.490;5.448;2023-12-14T02:26:16;101381.22;;;4.28;99.78
81802;BME280;71199;52.490;5.448;2023-12-14T02:28:41;101391.13;;;4.29;99.63
81802;BME280;71199;52.490;5.448;2023-12-14T02:31:07;101395.94;;;4.25;98.63
81802;BME280;71199;52.490;5.448;2023-12-14T02:33:32;101398.19;;;4.31;98.63
81802;BME280;71199;52.490;5.448;2023-12-14T02:35:59;101398.06;;;4.33;98.82
81802;BME280;71199;52.490;5.448;2023-12-14T02:38:24;101396.94;;;4.35;99.08
81802;BME280;71199;52.490;5.448;2023-12-14T02:40:49;101400.91;;;4.31;98.68
81802;BME280;71199;52.490;5.448;2023-12-14T02:43:18;101399.78;;;4.34;98.87
81802;BME280;71199;52.490;5.448;2023-12-14T02:45:44;101395.81;;;4.27;99.34
81802;BME280;71199;52.490;5.448;2023-12-14T02:48:10;101407.84;;;4.35;98.97
81802;BME280;71199;52.490;5.448;2023-12-14T02:50:35;101403.63;;;4.31;99.10
81802;BME280;71199;52.490;5.448;2023-12-14T02:53:00;101414.13;;;4.36;98.78
81802;BME280;71199;52.490;5.448;2023-12-14T02:55:26;101416.47;;;4.29;98.91
81802;BME280;71199;52.490;5.448;2023-12-14T02:57:51;101427.25;;;4.31;98.58
81802;BME280;71199;52.490;5.448;2023-12-14T03:00:16;101424.75;;;4.28;98.69
81802;BME280;71199;52.490;5.448;2023-12-14T03:02:42;101425.00;;;4.24;99.15
81802;BME280;71199;52.490;5.448;2023-12-14T03:05:08;101425.88;;;4.25;99.25
81802;BME280;71199;52.490;5.448;2023-12-14T03:07:33;101439.81;;;4.20;99.75
81802;BME280;71199;52.490;5.448;2023-12-14T03:09:58;101449.59;;;4.23;100.00
81802;BME280;71199;52.490;5.448;2023-12-14T03:12:24;101447.09;;;4.20;99.84
81802;BME280;71199;52.490;5.448;2023-12-14T03:14:49;101444.03;;;4.24;99.49
81802;BME280;71199;52.490;5.448;2023-12-14T03:17:14;101441.72;;;4.31;98.98
81802;BME280;71199;52.490;5.448;2023-12-14T03:19:41;101445.75;;;4.26;99.32
81802;BME280;71199;52.490;5.448;2023-12-14T03:22:08;101439.94;;;4.19;99.74
81802;BME280;71199;52.490;5.448;2023-12-14T03:24:33;101439.22;;;4.28;98.60
81802;BME280;71199;52.490;5.448;2023-12-14T03:26:58;101431.78;;;4.30;99.15
81802;BME280;71199;52.490;5.448;2023-12-14T03:29:24;101443.16;;;4.24;99.75
81802;BME280;71199;52.490;5.448;2023-12-14T03:31:49;101442.88;;;4.16;99.50
81802;BME280;71199;52.490;5.448;2023-12-14T03:34:15;101454.50;;;4.18;99.60
81802;BME280;71199;52.490;5.448;2023-12-14T03:36:40;101449.81;;;4.20;99.24
81802;BME280;71199;52.490;5.448;2023-12-14T03:39:05;101452.59;;;4.31;98.80
81802;BME280;71199;52.490;5.448;2023-12-14T03:41:31;101454.47;;;4.31;98.33
81802;BME280;71199;52.490;5.448;2023-12-14T03:43:57;101447.16;;;4.31;97.62
81802;BME280;71199;52.490;5.448;2023-12-14T03:46:22;101457.28;;;4.29;97.43
81802;BME280;71199;52.490;5.448;2023-12-14T03:48:48;101459.47;;;4.24;98.31
81802;BME280;71199;52.490;5.448;2023-12-14T03:51:13;101449.97;;;4.18;98.32
81802;BME280;71199;52.490;5.448;2023-12-14T03:53:38;101451.69;;;4.19;97.95
81802;BME280;71199;52.490;5.448;2023-12-14T03:56:05;101456.25;;;4.19;97.05
81802;BME280;71199;52.490;5.448;2023-12-14T03:58:30;101460.66;;;4.09;97.77
81802;BME280;71199;52.490;5.448;2023-12-14T04:00:56;101462.53;;;4.08;97.35
81802;BME280;71199;52.490;5.448;2023-12-14T04:03:21;101463.38;;;4.09;97.13
81802;BME280;71199;52.490;5.448;2023-12-14T04:05:46;101470.78;;;4.07;97.07
81802;BME280;71199;52.490;5.448;2023-12-14T04:08:12;101480.06;;;4.04;95.61
81802;BME280;71199;52.490;5.448;2023-12-14T04:10:37;101483.34;;;3.96;95.99
81802;BME280;71199;52.490;5.448;2023-12-14T04:13:02;101486.31;;;3.93;95.80
81802;BME280;71199;52.490;5.448;2023-12-14T04:15:28;101485.97;;;3.98;95.23
81802;BME280;71199;52.490;5.448;2023-12-14T04:17:53;101489.88;;;3.94;94.05
81802;BME280;71199;52.490;5.448;2023-12-14T04:20:19;101495.94;;;3.97;94.30
81802;BME280;71199;52.490;5.448;2023-12-14T04:22:44;101502.72;;;3.92;94.40
81802;BME280;71199;52.490;5.448;2023-12-14T04:25:10;101500.41;;;3.98;94.16
81802;BME280;71199;52.490;5.448;2023-12-14T04:27:35;101509.97;;;4.04;94.45
81802;BME280;71199;52.490;5.448;2023-12-14T04:30:01;101511.50;;;3.95;95.34
81802;BME280;71199;52.490;5.448;2023-12-14T04:32:27;101519.25;;;3.89;94.84
81802;BME280;71199;52.490;5.448;2023-12-14T04:34:52;101530.03;;;3.90;94.05
81802;BME280;71199;52.490;5.448;2023-12-14T04:37:17;101526.03;;;3.83;94.39
81802;BME280;71199;52.490;5.448;2023-12-14T04:39:43;101538.13;;;3.79;94.85
81802;BME280;71199;52.490;5.448;2023-12-14T04:42:08;101541.28;;;3.73;94.26
81802;BME280;71199;52.490;5.448;2023-12-14T04:44:34;101545.06;;;3.83;93.52
81802;BME280;71199;52.490;5.448;2023-12-14T04:46:59;101552.34;;;3.82;93.60
81802;BME280;71199;52.490;5.448;2023-12-14T04:49:24;101554.53;;;3.77;93.91
81802;BME280;71199;52.490;5.448;2023-12-14T04:51:50;101559.13;;;3.77;94.18
81802;BME280;71199;52.490;5.448;2023-12-14T04:54:15;101575.44;;;3.77;95.06
81802;BME280;71199;52.490;5.448;2023-12-14T04:56:40;101576.28;;;3.77;94.00
81802;BME280;71199;52.490;5.448;2023-12-14T04:59:07;101587.16;;;3.77;93.75
81802;BME280;71199;52.490;5.448;2023-12-14T05:01:32;101595.75;;;3.71;94.29
81802;BME280;71199;52.490;5.448;2023-12-14T05:03:57;101596.53;;;3.60;93.76
81802;BME280;71199;52.490;5.448;2023-12-14T05:06:23;101597.84;;;3.55;94.33
81802;BME280;71199;52.490;5.448;2023-12-14T05:08:48;101599.56;;;3.56;94.32
81802;BME280;71199;52.490;5.448;2023-12-14T05:11:14;101601.41;;;3.55;94.15
81802;BME280;71199;52.490;5.448;2023-12-14T05:13:42;101609.56;;;3.55;94.23
81802;BME280;71199;52.490;5.448;2023-12-14T05:16:13;101616.84;;;3.55;94.42
81802;BME280;71199;52.490;5.448;2023-12-14T05:18:38;101616.75;;;3.56;94.62
81802;BME280;71199;52.490;5.448;2023-12-14T05:21:05;101628.94;;;3.51;94.43
81802;BME280;71199;52.490;5.448;2023-12-14T05:23:30;101635.22;;;3.51;95.02
81802;BME280;71199;52.490;5.448;2023-12-14T05:25:55;101643.72;;;3.47;95.45
81802;BME280;71199;52.490;5.448;2023-12-14T05:28:21;101642.59;;;3.62;95.26
81802;BME280;71199;52.490;5.448;2023-12-14T05:30:46;101641.09;;;3.58;95.49
81802;BME280;71199;52.490;5.448;2023-12-14T05:33:11;101643.16;;;3.54;95.87
81802;BME280;71199;52.490;5.448;2023-12-14T05:35:37;101641.97;;;3.58;95.48
81802;BME280;71199;52.490;5.448;2023-12-14T05:38:02;101648.59;;;3.54;94.86
81802;BME280;71199;52.490;5.448;2023-12-14T05:40:28;101651.31;;;3.54;95.15
81802;BME280;71199;52.490;5.448;2023-12-14T05:42:54;101657.63;;;3.55;94.83
81802;BME280;71199;52.490;5.448;2023-12-14T05:45:19;101660.78;;;3.61;94.40
81802;BME280;71199;52.490;5.448;2023-12-14T05:47:45;101658.47;;;3.68;94.17
81802;BME280;71199;52.490;5.448;2023-12-14T05:50:11;101663.38;;;3.76;93.05
81802;BME280;71199;52.490;5.448;2023-12-14T05:52:37;101662.72;;;3.72;93.69
81802;BME280;71199;52.490;5.448;2023-12-14T05:55:04;101667.41;;;3.70;94.39
81802;BME280;71199;52.490;5.448;2023-12-14T05:57:29;101673.81;;;3.69;93.47
81802;BME280;71199;52.490;5.448;2023-12-14T05:59:54;101677.22;;;3.73;93.14
81802;BME280;71199;52.490;5.448;2023-12-14T06:02:20;101684.38;;;3.74;93.63
81802;BME280;71199;52.490;5.448;2023-12-14T06:04:45;101689.38;;;3.80;92.90
81802;BME280;71199;52.490;5.448;2023-12-14T06:07:11;101687.22;;;3.85;92.05
81802;BME280;71199;52.490;5.448;2023-12-14T06:09:36;101693.09;;;3.79;92.76
81802;BME280;71199;52.490;5.448;2023-12-14T06:12:02;101688.59;;;3.78;93.44
81802;BME280;71199;52.490;5.448;2023-12-14T06:14:28;101694.72;;;3.81;92.33
81802;BME280;71199;52.490;5.448;2023-12-14T06:16:54;101688.72;;;3.89;92.29
81802;BME280;71199;52.490;5.448;2023-12-14T06:19:20;101702.63;;;3.84;93.01
81802;BME280;71199;52.490;5.448;2023-12-14T06:21:45;101706.25;;;3.85;92.81
81802;BME280;71199;52.490;5.448;2023-12-14T06:24:11;101704.81;;;3.79;93.05
81802;BME280;71199;52.490;5.448;2023-12-14T06:26:43;101707.88;;;3.88;93.10
81802;BME280;71199;52.490;5.448;2023-12-14T06:29:11;101710.25;;;3.92;92.95
81802;BME280;71199;52.490;5.448;2023-12-14T06:31:38;101717.66;;;3.90;92.97
81802;BME280;71199;52.490;5.448;2023-12-14T06:34:04;101718.75;;;3.88;93.00
81802;BME280;71199;52.490;5.448;2023-12-14T06:36:30;101720.13;;;3.80;93.40
81802;BME280;71199;52.490;5.448;2023-12-14T06:38:57;101721.78;;;3.83;93.77
81802;BME280;71199;52.490;5.448;2023-12-14T06:41:22;101724.38;;;3.84;93.62
81802;BME280;71199;52.490;5.448;2023-12-14T06:43:48;101737.88;;;3.86;93.37
81802;BME280;71199;52.490;5.448;2023-12-14T06:46:14;101729.63;;;3.88;92.89
81802;BME280;71199;52.490;5.448;2023-12-14T06:48:39;101730.47;;;3.88;93.23
81802;BME280;71199;52.490;5.448;2023-12-14T06:51:05;101739.06;;;3.95;93.15
81802;BME280;71199;52.490;5.448;2023-12-14T06:53:30;101750.72;;;3.97;92.51
81802;BME280;71199;52.490;5.448;2023-12-14T06:55:56;101757.00;;;3.97;91.96
81802;BME280;71199;52.490;5.448;2023-12-14T06:58:21;101767.88;;;3.97;92.46
81802;BME280;71199;52.490;5.448;2023-12-14T07:00:46;101767.88;;;3.97;92.65
81802;BME280;71199;52.490;5.448;2023-12-14T07:03:12;101781.28;;;4.00;92.99
81802;BME280;71199;52.490;5.448;2023-12-14T07:05:38;101796.50;;;4.03;92.26
81802;BME280;71199;52.490;5.448;2023-12-14T07:08:04;101792.94;;;4.02;91.92
81802;BME280;71199;52.490;5.448;2023-12-14T07:10:29;101794.47;;;4.07;91.25
81802;BME280;71199;52.490;5.448;2023-12-14T07:12:55;101790.53;;;4.11;89.18
81802;BME280;71199;52.490;5.448;2023-12-14T07:15:20;101795.31;;;4.07;89.83
81802;BME280;71199;52.490;5.448;2023-12-14T07:17:46;101803.16;;;4.12;89.76
81802;BME280;71199;52.490;5.448;2023-12-14T07:20:11;101804.13;;;4.11;89.11
81802;BME280;71199;52.490;5.448;2023-12-14T07:22:37;101811.09;;;4.02;90.32
81802;BME280;71199;52.490;5.448;2023-12-14T07:25:03;101816.66;;;4.00;90.78
81802;BME280;71199;52.490;5.448;2023-12-14T07:27:29;101825.56;;;4.02;90.08
81802;BME280;71199;52.490;5.448;2023-12-14T07:29:54;101824.28;;;4.08;89.75
81802;BME280;71199;52.490;5.448;2023-12-14T07:32:20;101828.63;;;4.11;89.46
81802;BME280;71199;52.490;5.448;2023-12-14T07:34:46;101839.94;;;4.04;89.96
81802;BME280;71199;52.490;5.448;2023-12-14T07:37:12;101831.19;;;3.99;91.28
81802;BME280;71199;52.490;5.448;2023-12-14T07:39:37;101835.88;;;3.97;91.47
81802;BME280;71199;52.490;5.448;2023-12-14T07:42:03;101841.88;;;4.02;90.84
81802;BME280;71199;52.490;5.448;2023-12-14T07:44:28;101837.53;;;4.00;91.33
81802;BME280;71199;52.490;5.448;2023-12-14T07:46:59;101844.59;;;4.02;90.96
81802;BME280;71199;52.490;5.448;2023-12-14T07:49:25;101850.03;;;4.02;90.73
81802;BME280;71199;52.490;5.448;2023-12-14T07:51:50;101852.00;;;4.00;91.38
81802;BME280;71199;52.490;5.448;2023-12-14T07:54:16;101848.94;;;4.05;91.45
81802;BME280;71199;52.490;5.448;2023-12-14T07:56:41;101844.38;;;4.06;90.76
81802;BME280;71199;52.490;5.448;2023-12-14T07:59:07;101849.63;;;4.09;91.15
81802;BME280;71199;52.490;5.448;2023-12-14T08:01:33;101859.31;;;4.13;90.13
81802;BME280;71199;52.490;5.448;2023-12-14T08:03:59;101850.91;;;4.16;90.70
81802;BME280;71199;52.490;5.448;2023-12-14T08:06:25;101859.97;;;4.16;90.90
81802;BME280;71199;52.490;5.448;2023-12-14T08:08:50;101864.09;;;4.22;88.73
81802;BME280;71199;52.490;5.448;2023-12-14T08:11:16;101866.03;;;4.20;89.80
81802;BME280;71199;52.490;5.448;2023-12-14T08:13:42;101865.28;;;4.18;90.46
81802;BME280;71199;52.490;5.448;2023-12-14T08:16:08;101871.50;;;4.20;90.86
81802;BME280;71199;52.490;5.448;2023-12-14T08:18:33;101866.81;;;4.22;90.06
81802;BME280;71199;52.490;5.448;2023-12-14T08:20:59;101872.38;;;4.20;90.82
81802;BME280;71199;52.490;5.448;2023-12-14T08:23:24;101883.47;;;4.17;91.68
81802;BME280;71199;52.490;5.448;2023-12-14T08:25:53;101881.06;;;4.26;91.20
81802;BME280;71199;52.490;5.448;2023-12-14T08:28:22;101889.78;;;4.18;92.81
81802;BME280;71199;52.490;5.448;2023-12-14T08:30:48;101891.31;;;4.22;92.65
81802;BME280;71199;52.490;5.448;2023-12-14T08:33:13;101884.13;;;4.21;92.85
81802;BME280;71199;52.490;5.448;2023-12-14T08:35:39;101891.09;;;4.25;93.75
81802;BME280;71199;52.490;5.448;2023-12-14T08:38:04;101903.50;;;4.29;92.70
81802;BME280;71199;52.490;5.448;2023-12-14T08:40:29;101907.31;;;4.27;91.42
81802;BME280;71199;52.490;5.448;2023-12-14T08:42:55;101907.63;;;4.22;92.63
81802;BME280;71199;52.490;5.448;2023-12-14T08:45:20;101904.94;;;4.35;91.84
81802;BME280;71199;52.490;5.448;2023-12-14T08:47:46;101918.00;;;4.42;92.22
81802;BME280;71199;52.490;5.448;2023-12-14T08:50:11;101921.38;;;4.33;93.41
81802;BME280;71199;52.490;5.448;2023-12-14T08:52:37;101925.28;;;4.29;93.59
81802;BME280;71199;52.490;5.448;2023-12-14T08:55:03;101926.59;;;4.36;92.97
81802;BME280;71199;52.490;5.448;2023-12-14T08:57:29;101942.56;;;4.28;93.58
81802;BME280;71199;52.490;5.448;2023-12-14T08:59:54;101932.44;;;4.30;93.72
81802;BME280;71199;52.490;5.448;2023-12-14T09:02:20;101933.13;;;4.34;93.50
81802;BME280;71199;52.490;5.448;2023-12-14T09:04:45;101935.75;;;4.35;93.46
81802;BME280;71199;52.490;5.448;2023-12-14T09:07:11;101946.97;;;4.43;93.64
81802;BME280;71199;52.490;5.448;2023-12-14T09:09:36;101939.56;;;4.46;92.87
81802;BME280;71199;52.490;5.448;2023-12-14T09:12:01;101953.28;;;4.44;91.75
81802;BME280;71199;52.490;5.448;2023-12-14T09:14:27;101949.47;;;4.47;92.56
81802;BME280;71199;52.490;5.448;2023-12-14T09:16:54;101955.03;;;4.45;92.79
81802;BME280;71199;52.490;5.448;2023-12-14T09:19:20;101958.63;;;4.46;92.03
81802;BME280;71199;52.490;5.448;2023-12-14T09:21:45;101966.69;;;4.47;92.32
81802;BME280;71199;52.490;5.448;2023-12-14T09:24:11;101973.41;;;4.41;92.41
81802;BME280;71199;52.490;5.448;2023-12-14T09:26:36;101981.13;;;4.35;93.19
81802;BME280;71199;52.490;5.448;2023-12-14T09:29:02;101973.84;;;4.35;92.94
81802;BME280;71199;52.490;5.448;2023-12-14T09:31:27;101975.44;;;4.25;93.56
81802;BME280;71199;52.490;5.448;2023-12-14T09:33:53;101968.06;;;4.27;92.59
81802;BME280;71199;52.490;5.448;2023-12-14T09:36:18;101971.31;;;4.32;92.63
81802;BME280;71199;52.490;5.448;2023-12-14T09:38:44;101979.94;;;4.39;92.16
81802;BME280;71199;52.490;5.448;2023-12-14T09:41:11;101985.06;;;4.43;91.74
81802;BME280;71199;52.490;5.448;2023-12-14T09:43:37;101979.31;;;4.48;92.39
81802;BME280;71199;52.490;5.448;2023-12-14T09:46:03;101986.19;;;4.54;92.47
81802;BME280;71199;52.490;5.448;2023-12-14T09:48:29;101996.31;;;4.64;92.22
81802;BME280;71199;52.490;5.448;2023-12-14T09:50:55;102002.19;;;4.71;92.45
81802;BME280;71199;52.490;5.448;2023-12-14T09:53:20;102004.53;;;4.90;90.85
81802;BME280;71199;52.490;5.448;2023-12-14T09:55:45;102007.00;;;5.06;90.14
81802;BME280;71199;52.490;5.448;2023-12-14T09:58:11;102009.31;;;5.12;89.62
81802;BME280;71199;52.490;5.448;2023-12-14T10:00:39;102008.88;;;5.18;89.42
81802;BME280;71199;52.490;5.448;2023-12-14T10:03:18;102003.41;;;5.18;89.37
81802;BME280;71199;52.490;5.448;2023-12-14T10:05:45;102019.22;;;5.26;89.47
81802;BME280;71199;52.490;5.448;2023-12-14T10:08:10;102019.75;;;5.31;89.73
81802;BME280;71199;52.490;5.448;2023-12-14T10:10:35;102026.41;;;5.40;88.59
81802;BME280;71199;52.490;5.448;2023-12-14T10:13:01;102027.47;;;5.37;87.88
81802;BME280;71199;52.490;5.448;2023-12-14T10:15:26;102034.03;;;5.35;88.08
81802;BME280;71199;52.490;5.448;2023-12-14T10:17:53;102039.47;;;5.35;88.09
81802;BME280;71199;52.490;5.448;2023-12-14T10:20:20;102042.09;;;5.36;87.71
81802;BME280;71199;52.490;5.448;2023-12-14T10:22:49;102043.94;;;5.49;86.31
81802;BME280;71199;52.490;5.448;2023-12-14T10:25:15;102050.06;;;5.52;85.58
81802;BME280;71199;52.490;5.448;2023-12-14T10:27:40;102052.09;;;5.61;87.03
81802;BME280;71199;52.490;5.448;2023-12-14T10:30:09;102046.63;;;5.74;86.33
81802;BME280;71199;52.490;5.448;2023-12-14T10:32:38;102053.28;;;5.83;87.00
81802;BME280;71199;52.490;5.448;2023-12-14T10:35:03;102048.34;;;5.88;86.24
81802;BME280;71199;52.490;5.448;2023-12-14T10:37:29;102043.22;;;5.83;86.40
81802;BME280;71199;52.490;5.448;2023-12-14T10:39:56;102053.59;;;5.91;86.56
81802;BME280;71199;52.490;5.448;2023-12-14T10:42:25;102059.03;;;5.91;85.20
81802;BME280;71199;52.490;5.448;2023-12-14T10:44:52;102052.69;;;5.91;85.48
81802;BME280;71199;52.490;5.448;2023-12-14T10:47:19;102063.94;;;5.86;85.83
81802;BME280;71199;52.490;5.448;2023-12-14T10:49:48;102055.88;;;5.84;85.86
81802;BME280;71199;52.490;5.448;2023-12-14T10:52:15;102059.28;;;5.75;85.00
81802;BME280;71199;52.490;5.448;2023-12-14T10:54:41;102068.88;;;5.68;85.79
81802;BME280;71199;52.490;5.448;2023-12-14T10:57:07;102066.28;;;5.67;86.19
81802;BME280;71199;52.490;5.448;2023-12-14T10:59:34;102067.72;;;5.59;86.86
81802;BME280;71199;52.490;5.448;2023-12-14T11:02:07;102078.19;;;5.53;86.75
81802;BME280;71199;52.490;5.448;2023-12-14T11:05:00;102074.03;;;5.47;87.42
81802;BME280;71199;52.490;5.448;2023-12-14T11:08:04;102073.38;;;5.43;87.59
81802;BME280;71199;52.490;5.448;2023-12-14T11:13:25;102078.50;;;5.35;87.52
81802;BME280;71199;52.490;5.448;2023-12-14T11:15:51;102082.91;;;5.25;88.66
81802;BME280;71199;52.490;5.448;2023-12-14T11:23:37;102085.06;;;5.07;88.88
81802;BME280;71199;52.490;5.448;2023-12-14T11:26:08;102082.09;;;4.97;89.69
81802;BME280;71199;52.490;5.448;2023-12-14T11:28:36;102088.75;;;4.93;89.17
81802;BME280;71199;52.490;5.448;2023-12-14T11:31:02;102088.84;;;4.92;89.93
81802;BME280;71199;52.490;5.448;2023-12-14T11:33:35;102089.84;;;4.91;90.16
81802;BME280;71199;52.490;5.448;2023-12-14T11:36:02;102091.97;;;4.85;90.19
81802;BME280;71199;52.490;5.448;2023-12-14T11:38:29;102083.81;;;4.85;90.21
81802;BME280;71199;52.490;5.448;2023-12-14T11:40:55;102082.84;;;4.87;89.65
81802;BME280;71199;52.490;5.448;2023-12-14T11:43:20;102091.69;;;4.90;91.05
81802;BME280;71199;52.490;5.448;2023-12-14T11:45:47;102089.59;;;4.94;90.65
81802;BME280;71199;52.490;5.448;2023-12-14T11:48:13;102094.84;;;4.97;89.86
81802;BME280;71199;52.490;5.448;2023-12-14T11:50:39;102098.13;;;5.02;89.78
81802;BME280;71199;52.490;5.448;2023-12-14T11:53:05;102102.03;;;4.98;89.69
81802;BME280;71199;52.490;5.448;2023-12-14T11:55:35;102104.13;;;5.07;89.23
81802;BME280;71199;52.490;5.448;2023-12-14T11:58:01;102103.72;;;5.13;89.02
81802;BME280;71199;52.490;5.448;2023-12-14T12:00:27;102104.38;;;5.17;89.92
81802;BME280;71199;52.490;5.448;2023-12-14T12:03:17;102110.25;;;5.23;90.17
81802;BME280;71199;52.490;5.448;2023-12-14T12:05:46;102117.88;;;5.31;88.93
81802;BME280;71199;52.490;5.448;2023-12-14T12:08:12;102115.72;;;5.36;88.33
81802;BME280;71199;52.490;5.448;2023-12-14T12:10:39;102115.59;;;5.38;89.26
81802;BME280;71199;52.490;5.448;2023-12-14T12:13:07;102117.13;;;5.42;88.46
81802;BME280;71199;52.490;5.448;2023-12-14T12:15:34;102119.44;;;5.48;87.40
81802;BME280;71199;52.490;5.448;2023-12-14T12:18:09;102120.50;;;5.45;87.74
81802;BME280;71199;52.490;5.448;2023-12-14T12:20:35;102126.50;;;5.51;87.56
81802;BME280;71199;52.490;5.448;2023-12-14T12:23:01;102129.00;;;5.41;88.59
81802;BME280;71199;52.490;5.448;2023-12-14T12:25:27;102126.72;;;5.35;89.14
81802;BME280;71199;52.490;5.448;2023-12-14T12:27:56;102124.66;;;5.38;89.95
81802;BME280;71199;52.490;5.448;2023-12-14T12:30:22;102141.00;;;5.38;89.61
81802;BME280;71199;52.490;5.448;2023-12-14T12:32:48;102141.88;;;5.39;88.90
81802;BME280;71199;52.490;5.448;2023-12-14T12:35:14;102137.19;;;5.41;89.69
81802;BME280;71199;52.490;5.448;2023-12-14T12:37:39;102132.06;;;5.49;88.40
81802;BME280;71199;52.490;5.448;2023-12-14T12:40:05;102134.25;;;5.44;87.58
81802;BME280;71199;52.490;5.448;2023-12-14T12:42:31;102136.22;;;5.42;88.09
81802;BME280;71199;52.490;5.448;2023-12-14T12:44:56;102132.81;;;5.38;88.44
81802;BME280;71199;52.490;5.448;2023-12-14T12:47:22;102133.34;;;5.31;88.23
81802;BME280;71199;52.490;5.448;2023-12-14T12:49:47;102125.19;;;5.31;88.76
81802;BME280;71199;52.490;5.448;2023-12-14T12:52:13;102124.84;;;5.22;89.52
81802;BME280;71199;52.490;5.448;2023-12-14T12:54:38;102130.28;;;5.22;89.90
81802;BME280;71199;52.490;5.448;2023-12-14T12:57:05;102126.59;;;5.23;90.58
81802;BME280;71199;52.490;5.448;2023-12-14T12:59:30;102120.41;;;5.21;91.22